Date,TemperatureHighF,TemperatureAvgF,TemperatureLowF,DewpointHighF,DewpointAvgF,DewpointLowF,HumidityHigh,HumidityAvg,HumidityLow,PressureMaxIn,PressureMinIn,WindSpeedMaxMPH,WindSpeedAvgMPH,GustSpeedMaxMPH,PrecipitationSumIn
2013-10-1,53.4,44.2,36.2,46.6,41.1,34.7,96,89,66,30.21,29.97,9,1,0,0.76
2013-10-2,53.6,42.2,33.7,44.6,38.6,32.4,97,88,63,30.21,30.06,8,0,0,0.03
2013-10-3,59.4,44.9,33.9,44.7,39.2,32.6,96,82,49,30.44,30.17,7,0,0,0.00
2013-10-4,62.4,43.3,29.6,48.3,38.1,28.7,97,84,50,30.52,30.41,11,1,0,0.01
2013-10-5,65.8,45.4,31.4,49.6,39.6,30.4,97,83,48,30.44,30.24,7,0,0,0.01
2013-10-6,69.7,49.9,33.7,54.2,41.8,32.7,97,76,48,30.25,29.97,8,0,0,0.01
2013-10-7,54.4,50.7,47.0,47.1,43.2,37.8,93,76,54,30.03,29.94,13,1,13,0.17
2013-10-8,49.6,44.5,35.8,45.3,40.9,34.4,96,87,76,30.04,29.96,10,1,0,0.49
2013-10-9,55.9,42.3,30.7,47.0,38.5,29.6,97,88,59,30.14,29.98,6,0,0,0.00
2013-10-10,58.4,48.0,36.2,45.7,41.2,34.4,95,79,54,30.07,29.94,13,1,13,0.00
2013-10-11,55.5,43.6,37.5,42.5,39.4,35.8,95,86,60,30.11,30.06,8,0,0,0.00
2013-10-12,51.6,44.3,35.2,45.4,41.4,33.8,96,90,73,30.19,30.06,6,0,0,0.06
2013-10-13,61.6,44.4,33.2,47.6,38.9,32.2,97,83,47,30.34,30.19,7,0,0,0.00
2013-10-14,62.4,43.1,30.4,45.6,36.3,29.4,97,80,39,30.42,30.33,13,1,13,0.01
2013-10-15,59.0,42.3,29.7,42.5,35.7,28.3,96,80,47,30.44,30.20,15,1,16,0.01
2013-10-16,62.7,43.5,31.2,45.0,37.2,30.0,97,81,46,30.22,30.15,9,0,0,0.00
2013-10-17,62.6,43.7,31.4,45.5,37.9,30.4,97,82,49,30.29,30.22,8,0,0,0.01
2013-10-18,62.4,43.0,30.2,44.6,37.0,29.2,97,82,47,30.31,30.19,9,0,0,0.01
2013-10-19,67.3,45.6,30.5,51.4,38.9,29.4,97,80,46,30.21,30.08,5,0,0,0.01
2013-10-20,69.1,47.5,32.9,52.5,40.6,31.6,97,80,46,30.20,30.11,3,0,0,0.00
2013-10-21,71.0,49.2,35.7,50.7,42.8,34.7,97,81,44,30.20,30.10,11,0,0,0.01
2013-10-22,68.5,47.9,35.6,50.9,42.1,34.6,97,83,49,30.19,30.06,6,0,0,0.01
2013-10-23,66.7,47.2,34.5,51.0,42.3,33.4,97,85,54,30.14,30.04,6,0,0,0.01
2013-10-24,66.2,47.1,34.9,53.3,42.7,33.9,97,86,57,30.14,30.05,6,0,0,0.01
2013-10-25,67.5,47.7,35.9,53.5,43.7,34.8,98,87,58,30.27,30.13,4,0,0,0.01
2013-10-26,61.9,44.8,33.1,50.8,41.4,32.3,98,89,66,30.30,30.15,6,0,0,0.01
2013-10-27,52.9,44.2,35.8,44.9,41.3,34.8,97,90,65,30.16,29.81,13,1,17,0.25
2013-10-28,50.7,41.1,28.6,43.1,33.3,26.4,96,76,44,29.98,29.87,18,1,22,0.01
2013-10-29,52.1,35.4,24.8,32.4,27.7,23.1,94,77,41,30.09,29.98,9,1,0,0.01
2013-10-30,56.9,43.1,27.8,39.2,31.5,26.0,95,67,39,30.17,30.08,14,1,14,0.00
2013-10-31,58.9,50.9,42.2,48.7,43.9,37.2,91,77,63,30.26,30.12,15,2,17,0.00